METAR AND TAF INFORMATION
METAR FOR LIMF
ADDS - METARS form results

(1856 UTC 05 March 2021)
Data provider http://aviationweather.gov/metar/data/
 
METAR text: LIMF 051850Z 30004KT 6000 NSC 11/03 Q1016
Conditions at: LIMF (TORINO/CASELLE , IT) observed 1850 UTC 05 March 2021
Temperature: 11.0°C (52°F)
Dewpoint: 3.0°C (37°F) [RH = 58%]
Pressure (altimeter): 30.00 inches Hg (1016.0 mb)
Winds: from the WNW (300 degrees) at 5 MPH (4 knots; 2.1 m/s)
Visibility: 4 miles ( 6 km)
Ceiling: at least 12,000 feet AGL
Clouds: sky clear below 12,000 feet AGL
Weather: no significant weather observed at this time

METAR text: LIMF 051820Z 25002KT 8000 NSC 12/03 Q1016
Conditions at: LIMF (TORINO/CASELLE , IT) observed 1820 UTC 05 March 2021
Temperature: 12.0°C (54°F)
Dewpoint: 3.0°C (37°F) [RH = 54%]
Pressure (altimeter): 30.00 inches Hg (1016.0 mb)
Winds: from the WSW (250 degrees) at 2 MPH (2 knots; 1.0 m/s)
Visibility: 5 miles ( 8 km)
Ceiling: at least 12,000 feet AGL
Clouds: sky clear below 12,000 feet AGL
Weather: no significant weather observed at this time

Forecast for: LIMF (TORINO/CASELLE , IT)
Text: TAF LIMF 051700Z 0518/0618 VRB04KT 8000SCT050
Forecast period: 1800 UTC 05 March 2021 to 1800 UTC 06 March 2021
Forecast type: FROM: standard forecast or significant change
Winds: variable direction winds at 5 MPH (4 knots; 2.1 m/s)
Visibility: missing
Ceiling: at least 12,000 feet AGL
Clouds: scattered clouds at 5000 feet AGL
Weather: no significant weather forecast for this period
Text: TEMPO 0600/0612 4000 SHRA BKN020
Forecast period: 0000 to 1200 UTC 06 March 2021
Forecast type: TEMPORARY: The following changes expected for less than half the time period
Visibility: 2.49 miles (4.01 km)
Ceiling: 2000 feet AGL
Clouds: broken clouds at 2000 feet AGL
Weather: SHRA  (rain showers)

 AIRPORT MAP

 RUNWAY INFORMATION
Runway 18 Runway length 10827 ft Runway width 197 ft
Runway elevation 981 ft Runway displaced threshold 2378 ft Runway heading 183
Runway 36 Runway length 10827 ft Runway width 197 ft
Runway elevation 933 ft Runway displaced threshold 1148 ft Runway heading 3

 AIRPORT FREQUENCIES
Type APP Name APP Frequency 23.44 MHZ
Type APP Name APP Frequency 129.275 MHZ
Type ATIS Name ATIS Frequency 120.475 MHZ
Type GND Name GND Frequency 121.7 MHZ
Type TWR Name TWR Frequency 118.5 MHZ

 AIRPORT NEAR NAVIGATION AIDS
Type TACAN Name Caselle Frequency 109500 KHZ
Type NDB Name Caselle Frequency 357 KHZ
Type VOR-DME Name Caselle Frequency 116750 KHZ
Type VOR-DME Name Torino Frequency 114500 KHZ
Type NDB Name Torino Frequency 393 KHZ



Powered by Virtual Airlines Manager [v2.6.2]

Hosted by Utixo.it